Time;durP1;ratioP1;P1;durP2;ratioP2;P2;SDS_P1;SDS_P2;PMS_P1;PMS_P2;Temp;Humidity;BMP_temperature;BMP_pressure;BME280_temperature;BME280_humidity;BME280_pressure;Samples;Min_cycle;Max_cycle;Signal;HPM_P1;HPM_P2
2021/01/15 00:01:08;;;;;;;29.25;12.35;;;;;;;-3.03;77.84;96332.94;5086064;28;20051;-70
2021/01/15 00:03:34;;;;;;;32.25;13.32;;;;;;;-3.02;78.01;96337.25;5069522;28;20048;-71
2021/01/15 00:06:05;;;;;;;29.63;12.07;;;;;;;-3.00;78.16;96334.34;5066372;28;20051;-71
2021/01/15 00:08:32;;;;;;;28.77;11.90;;;;;;;-3.00;78.09;96339.66;5067034;28;20048;-70
2021/01/15 00:10:58;;;;;;;28.60;11.27;;;;;;;-3.01;77.89;96338.03;5070159;28;20446;-71
2021/01/15 00:13:23;;;;;;;31.17;12.18;;;;;;;-3.03;78.01;96330.25;5089017;28;20036;-71
2021/01/15 00:15:49;;;;;;;29.73;11.63;;;;;;;-3.02;77.83;96334.56;5090399;28;20052;-70
2021/01/15 00:18:16;;;;;;;27.85;11.25;;;;;;;-3.03;77.72;96340.91;5091309;28;20079;-71
2021/01/15 00:20:42;;;;;;;24.15;11.93;;;;;;;-3.04;77.63;96333.97;5093671;28;20044;-71
2021/01/15 00:23:08;;;;;;;33.65;12.43;;;;;;;-3.07;77.70;96331.78;5093117;28;20048;-71
2021/01/15 00:25:34;;;;;;;23.77;11.57;;;;;;;-3.06;78.06;96329.94;5093752;28;20056;-71
2021/01/15 00:28:00;;;;;;;28.58;12.18;;;;;;;-3.07;78.25;96331.00;5093472;28;20052;-71
2021/01/15 00:30:27;;;;;;;22.45;11.65;;;;;;;-3.05;78.27;96334.22;5093825;28;20044;-71
2021/01/15 00:32:53;;;;;;;26.80;11.88;;;;;;;-3.06;78.38;96336.06;5081561;28;20098;-71
2021/01/15 00:35:19;;;;;;;22.88;11.27;;;;;;;-3.05;78.31;96332.38;5079866;28;20048;-70
2021/01/15 00:37:45;;;;;;;27.25;11.13;;;;;;;-3.05;78.23;96334.22;5083619;28;20055;-71
2021/01/15 00:40:12;;;;;;;23.88;10.75;;;;;;;-3.07;77.96;96339.78;5084682;28;20048;-71
2021/01/15 00:42:38;;;;;;;27.27;10.77;;;;;;;-3.09;77.89;96336.53;5079975;28;20048;-71
2021/01/15 00:45:05;;;;;;;25.83;11.23;;;;;;;-3.11;77.72;96338.63;5073681;28;20052;-70
2021/01/15 00:47:31;;;;;;;24.92;11.57;;;;;;;-3.16;77.47;96335.84;5073991;28;20515;-71
2021/01/15 00:49:58;;;;;;;27.10;11.38;;;;;;;-3.17;77.40;96339.56;5080851;28;20048;-71
2021/01/15 00:52:25;;;;;;;25.55;11.52;;;;;;;-3.19;77.43;96331.78;5092839;28;20040;-71
2021/01/15 00:54:51;;;;;;;29.40;11.50;;;;;;;-3.20;77.33;96335.50;5092725;28;20113;-71
2021/01/15 00:57:17;;;;;;;25.20;11.52;;;;;;;-3.24;76.76;96329.00;5093067;28;20499;-71
2021/01/15 00:59:43;;;;;;;25.90;11.38;;;;;;;-3.26;76.69;96333.75;5092576;28;20052;-71
2021/01/15 01:02:08;;;;;;;27.45;11.02;;;;;;;-3.27;76.39;96344.66;5087584;28;20471;-71
2021/01/15 01:04:34;;;;;;;26.58;11.13;;;;;;;-3.30;76.37;96339.78;5072571;28;20113;-71
2021/01/15 01:07:00;;;;;;;24.70;11.00;;;;;;;-3.33;76.58;96342.91;5073276;28;20048;-71
2021/01/15 01:09:27;;;;;;;19.05;10.07;;;;;;;-3.35;76.64;96340.44;5072260;28;20044;-71
2021/01/15 01:11:57;;;;;;;28.27;11.32;;;;;;;-3.38;76.75;96342.78;5073363;28;20040;-70
2021/01/15 01:14:23;;;;;;;23.33;10.80;;;;;;;-3.41;76.87;96344.03;5072637;28;20052;-71
2021/01/15 01:16:49;;;;;;;23.08;10.50;;;;;;;-3.44;76.83;96344.53;5072760;28;20044;-70
2021/01/15 01:19:15;;;;;;;23.67;11.00;;;;;;;-3.49;76.91;96347.88;5074749;28;20052;-71
2021/01/15 01:21:41;;;;;;;28.88;11.88;;;;;;;-3.50;76.65;96346.25;5091809;28;20152;-71
2021/01/15 01:24:07;;;;;;;24.48;10.57;;;;;;;-3.54;76.70;96345.06;5092719;28;20044;-70
2021/01/15 01:26:34;;;;;;;24.23;11.30;;;;;;;-3.58;76.62;96351.09;5091996;28;20426;-71
2021/01/15 01:29:01;;;;;;;23.95;11.02;;;;;;;-3.58;76.28;96346.56;5093251;28;20164;-71
2021/01/15 01:31:27;;;;;;;22.13;10.75;;;;;;;-3.61;76.32;96340.88;5091863;28;20044;-71
2021/01/15 01:33:54;;;;;;;24.80;10.63;;;;;;;-3.64;76.23;96339.50;5073027;28;20044;-70
2021/01/15 01:36:20;;;;;;;24.05;11.45;;;;;;;-3.67;76.41;96342.59;5071760;28;20568;-71
2021/01/15 01:38:46;;;;;;;26.45;11.18;;;;;;;-3.68;76.50;96338.34;5072484;28;20044;-71
2021/01/15 01:41:12;;;;;;;26.20;10.68;;;;;;;-3.71;76.13;96338.78;5072219;28;20123;-71
2021/01/15 01:43:39;;;;;;;23.40;10.93;;;;;;;-3.75;75.57;96337.63;5072210;28;20044;-71
2021/01/15 01:46:07;;;;;;;27.15;10.77;;;;;;;-3.79;75.48;96341.78;5072381;28;20054;-71
2021/01/15 01:48:34;;;;;;;26.70;11.30;;;;;;;-3.85;75.28;96334.72;5071532;28;20044;-71
2021/01/15 01:51:01;;;;;;;24.65;10.82;;;;;;;-3.90;75.18;96335.38;5089372;28;20052;-71
2021/01/15 01:53:30;;;;;;;21.00;10.70;;;;;;;-3.95;75.20;96338.72;5091312;28;20067;-71
2021/01/15 01:55:57;;;;;;;28.63;11.15;;;;;;;-4.00;75.19;96340.44;5092487;28;20044;-71
2021/01/15 01:58:23;;;;;;;25.25;10.73;;;;;;;-4.08;74.95;96330.91;5091279;28;20055;-71
2021/01/15 02:00:58;;;;;;;27.15;11.20;;;;;;;-4.17;75.09;96326.16;5092070;28;20040;-71
2021/01/15 02:03:24;;;;;;;21.15;9.80;;;;;;;-4.29;74.91;96326.91;5075880;28;20052;-71
2021/01/15 02:05:50;;;;;;;27.30;11.07;;;;;;;-4.42;74.88;96331.59;5071637;28;20048;-71
2021/01/15 02:08:16;;;;;;;19.75;9.15;;;;;;;-4.56;74.71;96337.06;5071653;28;20079;-71
2021/01/15 02:10:44;;;;;;;27.33;11.07;;;;;;;-4.63;74.70;96336.34;5071341;28;20055;-71
2021/01/15 02:13:21;;;;;;;25.17;11.27;;;;;;;-4.67;75.19;96337.81;5072176;28;20045;-71
2021/01/15 02:15:53;;;;;;;25.90;11.35;;;;;;;-4.69;75.69;96342.56;5070989;28;20078;-71
2021/01/15 02:18:27;;;;;;;29.95;11.95;;;;;;;-4.67;76.23;96351.09;5071412;28;20602;-71
2021/01/15 02:21:09;;;;;;;29.55;11.82;;;;;;;-4.64;77.78;96344.56;5086919;28;20048;-71
2021/01/15 02:23:38;;;;;;;28.17;13.50;;;;;;;-4.59;78.38;96342.03;5091067;28;20044;-70
2021/01/15 02:26:59;;;;;;;29.77;12.35;;;;;;;-4.53;78.87;96349.13;5091148;28;20063;-70
2021/01/15 02:29:27;;;;;;;22.80;11.05;;;;;;;-4.52;79.02;96348.88;5090506;28;20533;-70
2021/01/15 02:32:32;;;;;;;30.92;12.23;;;;;;;-4.47;79.12;96349.03;5074274;28;20568;-70
2021/01/15 02:35:36;;;;;;;28.15;11.25;;;;;;;-4.41;78.78;96349.16;5082369;28;20048;-70
2021/01/15 02:38:10;;;;;;;;;;;;;;;-4.41;78.67;96349.97;5006703;28;20130;-71
2021/01/15 02:40:39;;;;;;;25.83;11.30;;;;;;;-4.41;78.70;96341.19;5077967;28;19924;-71
2021/01/15 02:43:07;;;;;;;31.02;11.00;;;;;;;-4.40;78.39;96340.16;5073900;28;20051;-70
2021/01/15 02:45:34;;;;;;;26.88;12.15;;;;;;;-4.39;78.09;96342.59;5071093;28;20045;-71
2021/01/15 02:48:03;;;;;;;26.65;12.20;;;;;;;-4.39;77.98;96342.59;5071169;28;20048;-71
2021/01/15 02:50:30;;;;;;;29.05;12.10;;;;;;;-4.38;78.01;96338.91;5082946;28;20066;-71
2021/01/15 02:52:57;;;;;;;25.02;10.88;;;;;;;-4.38;77.95;96338.09;5091764;28;20560;-71
2021/01/15 02:55:24;;;;;;;22.25;11.20;;;;;;;-4.38;77.85;96341.56;5090120;28;20392;-71
2021/01/15 02:57:50;;;;;;;29.05;12.93;;;;;;;-4.37;78.06;96343.19;5091750;28;20055;-71
2021/01/15 03:00:19;;;;;;;20.60;11.18;;;;;;;-4.37;78.11;96340.53;5091205;28;20043;-71
2021/01/15 03:02:56;;;;;;;34.08;13.93;;;;;;;-4.37;78.22;96347.69;5080545;28;20587;-71
2021/01/15 03:05:25;;;;;;;26.13;12.15;;;;;;;-4.36;78.32;96341.34;5070429;28;20109;-71
2021/01/15 03:07:52;;;;;;;33.33;13.18;;;;;;;-4.35;78.29;96345.63;5070440;28;20874;-70
2021/01/15 03:10:24;;;;;;;25.77;11.75;;;;;;;-4.35;78.08;96349.06;5070455;28;20257;-71
2021/01/15 03:12:52;;;;;;;28.08;12.75;;;;;;;-4.35;78.09;96353.59;5070328;28;20454;-71
2021/01/15 03:15:19;;;;;;;27.20;11.90;;;;;;;-4.36;77.98;96352.78;5070793;28;20063;-71
2021/01/15 03:17:48;;;;;;;28.30;14.07;;;;;;;-4.37;78.15;96355.66;5070122;28;20060;-71
2021/01/15 03:20:15;;;;;;;29.25;11.63;;;;;;;-4.37;78.16;96353.00;5080671;28;20051;-70
2021/01/15 03:22:44;;;;;;;27.38;12.20;;;;;;;-4.37;78.10;96361.00;5090338;28;20054;-71
2021/01/15 03:25:12;;;;;;;31.27;12.73;;;;;;;-4.38;78.05;96354.88;5090092;28;20044;-70
2021/01/15 03:27:44;;;;;;;22.65;11.10;;;;;;;-4.37;77.79;96358.31;5090765;28;20059;-71
2021/01/15 03:30:13;;;;;;;28.93;11.77;;;;;;;-4.36;77.88;96357.28;5089402;28;20052;-71
2021/01/15 03:32:39;;;;;;;23.30;11.80;;;;;;;-4.38;78.07;96364.69;5071472;28;20048;-70
2021/01/15 03:35:07;;;;;;;25.88;11.32;;;;;;;-4.39;78.27;96365.69;5070096;28;20102;-70
2021/01/15 03:37:33;;;;;;;31.05;13.60;;;;;;;-4.42;78.29;96368.81;5071044;28;20045;-70
2021/01/15 03:39:59;;;;;;;27.98;13.27;;;;;;;-4.42;78.46;96368.81;5069512;28;20110;-71
2021/01/15 03:42:25;;;;;;;25.73;12.05;;;;;;;-4.45;78.24;96375.38;5070188;28;20051;-71
2021/01/15 03:44:51;;;;;;;26.10;12.50;;;;;;;-4.46;77.99;96374.56;5069385;28;20076;-71
2021/01/15 03:47:17;;;;;;;29.80;12.07;;;;;;;-4.46;78.05;96371.91;5069171;28;20044;-71
2021/01/15 03:49:44;;;;;;;27.40;12.20;;;;;;;-4.47;78.01;96366.81;5070583;28;20128;-71
2021/01/15 03:52:10;;;;;;;30.20;13.20;;;;;;;-4.47;77.92;96369.47;5069517;28;20106;-70
2021/01/15 03:54:36;;;;;;;27.73;12.23;;;;;;;-4.48;77.86;96376.66;5070306;28;20105;-71
2021/01/15 03:57:02;;;;;;;29.73;12.10;;;;;;;-4.49;77.99;96375.03;5069163;28;20052;-70
2021/01/15 03:59:28;;;;;;;26.13;12.18;;;;;;;-4.49;77.74;96374.19;5070563;28;20044;-70
2021/01/15 04:01:55;;;;;;;28.90;12.70;;;;;;;-4.53;77.76;96379.16;5073143;28;20415;-71
2021/01/15 04:04:21;;;;;;;26.05;12.13;;;;;;;-4.55;77.71;96386.53;5090401;28;20048;-71
2021/01/15 04:06:47;;;;;;;25.15;11.60;;;;;;;-4.58;77.55;96386.97;5089638;28;20474;-70
2021/01/15 04:09:13;;;;;;;34.28;14.35;;;;;;;-4.60;77.54;96383.72;5090019;28;20127;-71
2021/01/15 04:11:39;;;;;;;25.88;12.85;;;;;;;-4.65;77.46;96380.91;5089824;28;20048;-71
2021/01/15 04:14:05;;;;;;;28.17;13.48;;;;;;;-4.72;77.63;96385.50;5089958;28;20637;-71
2021/01/15 04:16:31;;;;;;;28.70;12.82;;;;;;;-4.73;77.41;96394.50;5089964;28;20044;-71
2021/01/15 04:18:57;;;;;;;30.00;12.77;;;;;;;-4.75;77.76;96385.91;5090511;28;20131;-71
2021/01/15 04:21:23;;;;;;;27.65;12.82;;;;;;;-4.75;77.87;96391.22;5070766;28;20040;-71
2021/01/15 04:23:49;;;;;;;32.53;13.38;;;;;;;-4.74;77.74;96387.56;5069242;28;20077;-70
2021/01/15 04:26:19;;;;;;;27.95;12.52;;;;;;;-4.75;77.55;96391.22;5069754;28;20396;-71
2021/01/15 04:28:46;;;;;;;26.88;12.85;;;;;;;-4.78;77.47;96391.69;5069388;28;20072;-71
2021/01/15 04:31:15;;;;;;;26.45;13.07;;;;;;;-4.82;77.50;96391.31;5070134;28;20041;-71
2021/01/15 04:33:41;;;;;;;27.10;13.48;;;;;;;-4.88;77.52;96391.38;5087507;28;20093;-70
2021/01/15 04:36:11;;;;;;;31.92;13.45;;;;;;;-4.88;77.27;96396.69;5089562;28;20048;-70
2021/01/15 04:38:37;;;;;;;25.42;12.02;;;;;;;-4.88;77.31;96402.81;5089889;28;20051;-71
2021/01/15 04:41:03;;;;;;;31.15;13.02;;;;;;;-4.89;77.29;96392.44;5089086;28;20495;-71
2021/01/15 04:43:31;;;;;;;27.30;12.63;;;;;;;-4.89;77.62;96395.06;5090078;28;20053;-70
2021/01/15 04:45:58;;;;;;;26.73;12.45;;;;;;;-4.90;77.54;96388.16;5089346;28;20595;-71
2021/01/15 04:48:27;;;;;;;24.38;12.00;;;;;;;-4.92;77.21;96396.31;5089677;28;20684;-71
2021/01/15 04:50:56;;;;;;;26.52;12.10;;;;;;;-4.93;77.01;96396.53;5088957;28;20051;-71
2021/01/15 04:53:25;;;;;;;26.90;12.88;;;;;;;-4.95;77.24;96403.94;5089891;28;20044;-71
2021/01/15 04:55:57;;;;;;;28.00;12.45;;;;;;;-4.99;77.28;96400.88;5089165;28;20449;-71
2021/01/15 04:58:25;;;;;;;32.17;13.38;;;;;;;-5.02;77.34;96418.06;5092790;28;20044;-71
2021/01/15 05:00:57;;;;;;;31.33;13.30;;;;;;;-5.02;77.49;96420.72;5088236;28;20051;-70
2021/01/15 05:03:24;;;;;;;32.15;13.50;;;;;;;-5.03;77.22;96419.09;5088300;28;20043;-71
2021/01/15 05:05:59;;;;;;;26.17;12.63;;;;;;;-5.03;77.29;96421.75;5093795;28;20044;-70
2021/01/15 05:08:27;;;;;;;30.92;13.05;;;;;;;-5.04;77.16;96428.09;5092322;28;20423;-71
2021/01/15 05:10:55;;;;;;;33.70;14.93;;;;;;;-5.03;77.10;96427.06;5093869;28;20078;-70
2021/01/15 05:13:22;;;;;;;29.63;13.00;;;;;;;-5.04;76.39;96424.63;5092154;28;20453;-70
2021/01/15 05:15:49;;;;;;;30.65;13.38;;;;;;;-5.09;75.62;96435.91;5093890;28;20068;-70
2021/01/15 05:18:18;;;;;;;23.60;11.38;;;;;;;-5.15;74.89;96428.00;5092822;28;20040;-71
2021/01/15 05:20:44;;;;;;;29.42;11.60;;;;;;;-5.22;74.88;96422.75;5079319;28;20055;-71
2021/01/15 05:23:10;;;;;;;25.48;11.40;;;;;;;-5.28;74.69;96428.91;5072067;28;20053;-70
2021/01/15 05:25:43;;;;;;;32.03;12.65;;;;;;;-5.33;74.72;96426.06;5072431;28;20059;-71
2021/01/15 05:28:09;;;;;;;32.58;13.75;;;;;;;-5.36;75.08;96434.50;5072557;28;20052;-70
2021/01/15 05:30:38;;;;;;;31.27;13.90;;;;;;;-5.37;75.55;96430.22;5072622;28;20116;-71
2021/01/15 05:33:11;;;;;;;26.02;12.48;;;;;;;-5.36;75.82;96437.16;5073418;28;20048;-70
2021/01/15 05:35:46;;;;;;;25.33;11.98;;;;;;;-5.36;76.09;96431.84;5072144;28;20543;-70
2021/01/15 05:38:14;;;;;;;38.47;14.68;;;;;;;-5.37;76.27;96435.53;5072269;28;20066;-70
2021/01/15 05:40:44;;;;;;;33.88;15.07;;;;;;;-5.38;76.46;96437.34;5072334;28;20048;-71
2021/01/15 05:43:26;;;;;;;36.65;15.60;;;;;;;-5.35;76.67;96438.75;5071777;28;20433;-70
2021/01/15 05:46:06;;;;;;;26.60;12.65;;;;;;;-5.36;76.74;96442.44;5072646;28;20055;-71
2021/01/15 05:48:32;;;;;;;31.27;13.07;;;;;;;-5.36;76.97;96442.44;5071526;28;20037;-71
2021/01/15 05:50:58;;;;;;;30.15;14.38;;;;;;;-5.35;76.98;96444.06;5073539;28;20049;-71
2021/01/15 05:53:25;;;;;;;26.75;12.60;;;;;;;-5.38;76.71;96449.78;5070753;28;20134;-71
2021/01/15 05:55:55;;;;;;;32.30;12.40;;;;;;;-5.37;76.73;96446.13;5072658;28;20457;-70
2021/01/15 05:58:21;;;;;;;24.55;11.65;;;;;;;-5.35;76.83;96454.69;5071406;28;20053;-70
2021/01/15 06:00:51;;;;;;;33.17;13.13;;;;;;;-5.32;76.68;96454.28;5072561;28;20044;-70
2021/01/15 06:03:18;;;;;;;29.60;12.55;;;;;;;-5.26;76.90;96471.97;5086458;28;20051;-70
2021/01/15 06:05:49;;;;;;;31.90;13.10;;;;;;;-5.17;76.65;96465.34;5091715;28;20097;-70
2021/01/15 06:08:15;;;;;;;28.02;12.95;;;;;;;-5.12;76.59;96467.38;5091154;28;20050;-70
2021/01/15 06:10:44;;;;;;;31.17;12.75;;;;;;;-5.04;76.56;96473.22;5091487;28;20048;-71
2021/01/15 06:13:32;;;;;;;40.00;15.25;;;;;;;-4.95;76.85;96472.97;5091890;28;20059;-70
2021/01/15 06:16:00;;;;;;;29.17;14.00;;;;;;;-4.83;76.73;96484.50;5091435;28;20495;-71
2021/01/15 06:18:26;;;;;;;33.28;14.10;;;;;;;-4.74;76.88;96478.72;5091498;28;20112;-71
2021/01/15 06:21:06;;;;;;;34.50;13.45;;;;;;;-4.63;76.90;96489.66;5076529;28;20048;-70
2021/01/15 06:23:38;;;;;;;35.60;15.38;;;;;;;-4.57;77.11;96494.91;5070996;28;20476;-71
2021/01/15 06:26:08;;;;;;;30.00;11.27;;;;;;;-4.47;77.50;96487.22;5071532;28;20575;-70
2021/01/15 06:28:36;;;;;;;36.72;14.48;;;;;;;-4.37;77.76;96491.25;5077258;28;20048;-70
2021/01/15 06:31:04;;;;;;;36.38;14.43;;;;;;;-4.29;77.91;96493.59;5088370;28;20066;-71
2021/01/15 06:33:30;;;;;;;39.53;14.85;;;;;;;-4.20;78.07;96497.59;5087520;28;20044;-70
2021/01/15 06:35:56;;;;;;;40.67;14.82;;;;;;;-4.15;78.19;96495.09;5091684;28;20060;-70
2021/01/15 06:38:28;;;;;;;34.92;14.02;;;;;;;-4.11;78.29;96501.59;5090657;28;20039;-71
2021/01/15 06:40:54;;;;;;;41.22;14.57;;;;;;;-4.06;78.02;96507.06;5091189;28;20055;-71
2021/01/15 06:43:22;;;;;;;40.10;14.43;;;;;;;-4.01;77.94;96509.06;5091009;28;20044;-70
2021/01/15 06:45:51;;;;;;;47.85;18.42;;;;;;;-3.98;77.88;96512.06;5091067;28;20056;-70
2021/01/15 06:48:21;;;;;;;44.33;16.88;;;;;;;-3.98;78.23;96509.41;5091186;28;20044;-70
2021/01/15 06:50:48;;;;;;;39.10;15.20;;;;;;;-3.96;78.23;96522.50;5076296;28;20494;-70
2021/01/15 06:53:17;;;;;;;40.63;16.27;;;;;;;-3.96;78.81;96523.31;5071227;28;20044;-70
2021/01/15 06:55:44;;;;;;;40.38;16.10;;;;;;;-3.89;79.10;96533.06;5070576;28;20487;-70
2021/01/15 06:58:19;;;;;;;46.35;18.08;;;;;;;-3.80;78.95;96531.72;5070855;28;20098;-69
2021/01/15 07:01:10;;;;;;;43.50;17.58;;;;;;;-3.79;78.95;96533.34;5070903;28;20040;-70
2021/01/15 07:04:06;;;;;;;43.67;16.65;;;;;;;-3.78;79.12;96537.63;5087768;28;20172;-70
2021/01/15 07:06:33;;;;;;;40.05;16.50;;;;;;;-3.73;79.24;96540.44;5091514;28;20036;-71
2021/01/15 07:09:02;;;;;;;48.28;17.35;;;;;;;-3.68;79.14;96529.94;5088877;28;20093;-72
2021/01/15 07:11:29;;;;;;;42.17;16.13;;;;;;;-3.63;79.14;96532.75;5090522;28;20066;-72
2021/01/15 07:13:57;;;;;;;39.72;15.65;;;;;;;-3.59;79.09;96539.25;5089049;28;20051;-71
2021/01/15 07:16:29;;;;;;;41.65;15.73;;;;;;;-3.53;78.93;96543.66;5090325;28;20108;-72
2021/01/15 07:19:13;;;;;;;39.47;12.90;;;;;;;-3.50;78.39;96543.25;5091052;28;20048;-72
2021/01/15 07:21:44;;;;;;;52.10;18.50;;;;;;;-3.51;78.67;96541.59;5069741;28;20048;-73
2021/01/15 07:24:13;;;;;;;43.92;17.38;;;;;;;-3.49;78.71;96550.19;5070480;28;20056;-70
2021/01/15 07:26:39;;;;;;;36.13;15.38;;;;;;;-3.47;78.78;96557.94;5070898;28;20101;-70
2021/01/15 07:29:07;;;;;;;38.28;14.70;;;;;;;-3.49;78.83;96550.19;5070404;28;20056;-69
2021/01/15 07:31:38;;;;;;;37.03;14.23;;;;;;;-3.49;78.82;96557.34;5070722;28;20040;-72
2021/01/15 07:34:06;;;;;;;42.90;15.90;;;;;;;-3.46;78.58;96560.38;5090144;28;20055;-72
2021/01/15 07:36:35;;;;;;;48.78;15.35;;;;;;;-3.43;78.36;96562.59;5090391;28;20048;-72
2021/01/15 07:39:12;;;;;;;41.60;14.77;;;;;;;-3.46;78.03;96565.69;5090142;28;20048;-71
2021/01/15 07:41:43;;;;;;;35.33;13.13;;;;;;;-3.52;77.81;96576.44;5090786;28;20055;-71
2021/01/15 07:44:39;;;;;;;41.20;14.25;;;;;;;-3.54;77.89;96581.97;5088698;28;20046;-72
2021/01/15 07:47:12;;;;;;;40.15;13.60;;;;;;;-3.57;77.83;96585.06;5089988;28;20044;-73
2021/01/15 07:49:47;;;;;;;33.03;13.17;;;;;;;-3.56;77.93;96585.88;5085628;28;20049;-74
2021/01/15 07:52:13;;;;;;;41.15;14.75;;;;;;;-3.58;77.98;96588.78;5069480;28;20048;-74
2021/01/15 07:55:00;;;;;;;36.58;14.13;;;;;;;-3.59;77.82;96587.16;5070374;28;20049;-74
2021/01/15 07:57:27;;;;;;;39.90;13.80;;;;;;;-3.57;77.95;96593.06;5051163;28;20045;-74
2021/01/15 07:59:53;;;;;;;29.88;12.35;;;;;;;-3.55;77.83;96596.34;5070491;28;20074;-74
2021/01/15 08:02:20;;;;;;;25.65;12.20;;;;;;;-3.56;77.89;96596.53;5076230;28;20048;-73
2021/01/15 08:04:48;;;;;;;31.33;12.50;;;;;;;-3.58;77.49;96604.75;5090406;28;20047;-74
2021/01/15 08:07:29;;;;;;;29.60;12.25;;;;;;;-3.55;77.59;96603.47;5089555;28;20044;-74
2021/01/15 08:09:55;;;;;;;38.97;12.38;;;;;;;-3.71;76.50;96619.03;5089959;28;20044;-73
2021/01/15 08:12:21;;;;;;;29.88;12.35;;;;;;;-3.75;76.85;96617.84;5089557;28;20083;-73
2021/01/15 08:14:47;;;;;;;32.03;12.05;;;;;;;-3.79;76.76;96615.84;5089621;28;20109;-73
2021/01/15 08:17:14;;;;;;;33.28;12.45;;;;;;;-3.77;76.88;96627.06;5090182;28;20453;-73
2021/01/15 08:19:41;;;;;;;26.67;11.85;;;;;;;-3.71;77.23;96629.69;5084302;28;20499;-74
2021/01/15 08:22:13;;;;;;;30.05;12.32;;;;;;;-3.64;77.36;96631.44;5069906;28;20450;-73
2021/01/15 08:24:45;;;;;;;35.83;12.93;;;;;;;-3.65;77.33;96630.63;5070195;28;20059;-73
2021/01/15 08:27:16;;;;;;;32.40;13.63;;;;;;;-3.62;77.33;96635.50;5086803;28;20056;-73
2021/01/15 08:29:42;;;;;;;44.28;13.80;;;;;;;-3.59;77.77;96636.94;5086834;28;20052;-73
2021/01/15 08:32:09;;;;;;;31.95;12.32;;;;;;;-3.52;76.95;96635.81;5057104;28;20115;-74
2021/01/15 08:34:36;;;;;;;36.72;13.70;;;;;;;-3.44;76.86;96632.03;5068270;28;20048;-73
2021/01/15 08:37:04;;;;;;;38.38;14.10;;;;;;;-3.37;77.23;96650.59;5069247;28;20052;-73
2021/01/15 08:39:46;;;;;;;28.58;11.80;;;;;;;-3.37;76.78;96637.28;5071202;28;20097;-73
2021/01/15 08:42:13;;;;;;;45.67;14.68;;;;;;;-3.33;76.60;96647.28;5069316;28;20048;-72
2021/01/15 08:44:41;;;;;;;35.97;13.77;;;;;;;-3.30;76.61;96644.16;5070546;28;20049;-73
2021/01/15 08:47:10;;;;;;;37.08;12.88;;;;;;;-3.22;76.21;96651.03;5069329;28;20078;-73
2021/01/15 08:49:36;;;;;;;37.58;14.13;;;;;;;-3.21;76.21;96647.34;5048267;28;20055;-73
2021/01/15 08:52:03;;;;;;;35.05;12.65;;;;;;;-3.15;76.39;96659.75;5052527;28;20063;-73
2021/01/15 08:54:30;;;;;;;41.22;15.05;;;;;;;-3.11;76.36;96654.78;5069943;28;20059;-73
2021/01/15 08:56:57;;;;;;;34.38;13.25;;;;;;;-3.04;76.63;96658.19;5070243;28;20044;-73
2021/01/15 08:59:26;;;;;;;48.53;18.13;;;;;;;-2.99;76.42;96656.47;5069203;28;20055;-73
2021/01/15 09:01:53;;;;;;;41.75;16.77;;;;;;;-2.97;76.35;96658.94;5057678;28;20071;-73
2021/01/15 09:04:23;;;;;;;43.53;17.15;;;;;;;-2.95;76.49;96660.31;5049003;28;20091;-73
2021/01/15 09:06:53;;;;;;;40.90;16.40;;;;;;;-2.89;76.54;96667.41;5050390;28;20053;-74
2021/01/15 09:09:20;;;;;;;45.67;16.08;;;;;;;-2.89;76.72;96667.41;5049119;28;20059;-73
2021/01/15 09:11:48;;;;;;;45.75;16.25;;;;;;;-2.78;76.77;96660.50;5050213;28;20045;-73
2021/01/15 09:14:19;;;;;;;41.33;15.20;;;;;;;-2.78;76.66;96667.69;5049168;28;20079;-73
2021/01/15 09:16:47;;;;;;;41.38;15.85;;;;;;;-2.76;76.83;96666.44;5050526;28;20049;-73
2021/01/15 09:19:13;;;;;;;42.20;16.65;;;;;;;-2.72;76.57;96682.75;5050241;28;20045;-73
2021/01/15 09:21:50;;;;;;;52.10;17.85;;;;;;;-2.67;76.80;96674.91;5048939;28;20084;-73
2021/01/15 09:24:18;;;;;;;43.67;16.13;;;;;;;-2.62;76.83;96677.72;5049657;28;20135;-73
2021/01/15 09:26:44;;;;;;;47.88;16.08;;;;;;;-2.54;76.81;96677.41;5048700;28;20056;-72
2021/01/15 09:29:10;;;;;;;62.63;20.05;;;;;;;-2.63;76.00;96684.09;5049258;28;20064;-73
2021/01/15 09:31:39;;;;;;;39.75;13.43;;;;;;;-2.62;75.67;96683.03;5050822;28;20045;-73
2021/01/15 09:34:05;;;;;;;42.20;16.05;;;;;;;-2.65;75.89;96691.50;5068965;28;20044;-73
2021/01/15 09:36:31;;;;;;;34.10;13.43;;;;;;;-2.67;76.03;96698.91;5081730;28;20044;-73
2021/01/15 09:38:58;;;;;;;41.70;14.80;;;;;;;-2.63;76.12;96697.41;5089215;28;20058;-74
2021/01/15 09:41:25;;;;;;;36.08;13.90;;;;;;;-2.60;76.07;96702.31;5089416;28;20048;-74
2021/01/15 09:43:53;;;;;;;48.75;16.65;;;;;;;-2.52;75.91;96704.63;5087601;28;20051;-73
2021/01/15 09:46:26;;;;;;;41.47;16.40;;;;;;;-2.43;76.18;96705.16;5089289;28;20051;-73
2021/01/15 09:48:56;;;;;;;44.13;14.82;;;;;;;-2.44;74.93;96701.66;5088609;28;20090;-73
2021/01/15 09:51:23;;;;;;;53.97;15.75;;;;;;;-2.48;74.82;96710.34;5069814;28;20131;-73
2021/01/15 09:53:49;;;;;;;43.08;14.75;;;;;;;-2.50;75.24;96705.25;5068793;28;20679;-73
2021/01/15 09:56:26;;;;;;;47.13;16.30;;;;;;;-2.44;75.37;96706.19;5068426;28;20668;-73
2021/01/15 09:58:54;;;;;;;35.15;14.65;;;;;;;-2.46;75.40;96717.06;5069173;28;20754;-73
2021/01/15 10:01:20;;;;;;;41.50;15.70;;;;;;;-2.42;75.52;96714.75;5068484;28;20056;-73
2021/01/15 10:03:46;;;;;;;37.95;16.08;;;;;;;-2.44;75.60;96720.34;5070000;28;20052;-73
2021/01/15 10:06:17;;;;;;;40.22;16.35;;;;;;;-2.39;75.75;96720.47;5067589;28;20086;-74
2021/01/15 10:08:44;;;;;;;36.17;15.70;;;;;;;-2.31;76.16;96721.19;5069490;28;20076;-73
2021/01/15 10:11:18;;;;;;;44.42;17.67;;;;;;;-2.21;76.28;96721.44;5076668;28;20430;-73
2021/01/15 10:13:44;;;;;;;45.65;16.77;;;;;;;-2.17;76.22;96723.44;5089094;28;20079;-74
2021/01/15 10:16:10;;;;;;;36.58;15.68;;;;;;;-2.12;75.90;96720.88;5087886;28;20090;-73
2021/01/15 10:18:36;;;;;;;45.47;17.65;;;;;;;-2.08;75.63;96715.91;5088787;28;20044;-73
2021/01/15 10:21:03;;;;;;;44.28;15.55;;;;;;;-2.05;75.59;96715.44;5071913;28;20047;-72
2021/01/15 10:23:29;;;;;;;41.15;16.20;;;;;;;-2.03;75.51;96716.03;5068084;28;20040;-73
2021/01/15 10:25:55;;;;;;;46.55;16.20;;;;;;;-1.98;75.51;96718.84;5068238;28;20060;-73
2021/01/15 10:28:21;;;;;;;36.13;14.98;;;;;;;-1.90;75.21;96723.03;5067317;28;20059;-73
2021/01/15 10:30:48;;;;;;;43.17;16.88;;;;;;;-1.87;75.02;96718.03;5069131;28;20140;-73
2021/01/15 10:33:14;;;;;;;41.80;15.43;;;;;;;-1.86;74.76;96713.50;5068119;28;20048;-73
2021/01/15 10:35:40;;;;;;;42.90;16.33;;;;;;;-1.78;74.94;96721.16;5068479;28;20076;-73
2021/01/15 10:38:06;;;;;;;40.67;16.40;;;;;;;-1.77;74.74;96719.34;5067265;28;20052;-73
2021/01/15 10:40:33;;;;;;;45.90;17.83;;;;;;;-1.74;75.00;96716.19;5068453;28;20101;-74
2021/01/15 10:42:59;;;;;;;41.13;16.80;;;;;;;-1.72;74.78;96708.75;5067747;28;20478;-73
2021/01/15 10:45:25;;;;;;;50.17;18.75;;;;;;;-1.76;74.24;96710.28;5067264;28;20127;-73
2021/01/15 10:47:51;;;;;;;42.22;16.88;;;;;;;-1.78;74.25;96710.50;5068307;28;20056;-73
2021/01/15 10:50:17;;;;;;;43.85;16.98;;;;;;;-1.94;74.14;96719.19;5067879;28;20044;-73
2021/01/15 10:52:51;;;;;;;38.03;15.88;;;;;;;-1.89;74.59;96717.44;5068517;28;20418;-73
2021/01/15 10:55:17;;;;;;;41.90;16.73;;;;;;;-1.98;74.37;96713.50;5066255;28;20458;-73
2021/01/15 10:57:44;;;;;;;42.28;17.92;;;;;;;-1.96;74.53;96715.94;5068479;28;20048;-74
2021/01/15 11:00:12;;;;;;;41.95;15.52;;;;;;;-1.82;74.33;96713.88;5066846;28;20086;-73
2021/01/15 11:02:38;;;;;;;43.53;16.90;;;;;;;-1.77;74.44;96708.66;5077634;28;20052;-73
2021/01/15 11:05:05;;;;;;;45.92;17.00;;;;;;;-1.71;74.21;96710.41;5086959;28;20102;-73
2021/01/15 11:07:31;;;;;;;41.65;16.17;;;;;;;-1.74;73.99;96705.50;5087970;28;20079;-73
2021/01/15 11:09:57;;;;;;;41.45;16.27;;;;;;;-1.76;73.85;96710.28;5088015;28;20499;-73
2021/01/15 11:12:23;;;;;;;45.70;17.52;;;;;;;-1.69;74.32;96703.78;5087112;28;20061;-73
2021/01/15 11:14:50;;;;;;;40.35;16.55;;;;;;;-1.74;73.56;96706.31;5088260;28;20090;-73
2021/01/15 11:17:16;;;;;;;47.17;18.70;;;;;;;-1.65;74.46;96709.47;5086527;28;20051;-73
2021/01/15 11:19:43;;;;;;;42.55;18.00;;;;;;;-1.56;74.87;96713.44;5082809;28;20453;-74
2021/01/15 11:22:09;;;;;;;42.45;17.98;;;;;;;-1.47;74.80;96705.84;5066328;28;20059;-73
2021/01/15 11:24:35;;;;;;;42.60;17.13;;;;;;;-1.49;73.95;96710.63;5068071;28;20052;-73